LIRQ 210220Z VRB02KT 9999 SCT005 17/17 Q1018 LIRQ 210150Z VRB02KT 9999 BKN005 18/17 Q1018 LIRQ 210120Z 11003KT 9999 OVC005 17/17 Q1018 LIRQ 210050Z VRB02KT 9999 OVC008 17/17 Q1018 LIRQ 210020Z VRB02KT 9999 BKN008 17/17 Q1018 LIRQ 202350Z VRB02KT 9999 BKN008 17/17 Q1018 LIRQ 202320Z 09003KT 9999 OVC008 18/17 Q1017 LIRQ 202250Z 15003KT 9999 BKN010 17/17 Q1018 LIRQ 202220Z VRB02KT 9999 SCT010 17/16 Q1018 LIRQ 202150Z 20002KT 9999 FEW010 17/17 Q1017 LIRQ 202120Z VRB01KT 9999 FEW010 SCT035 17/17 Q1017 LIRQ 202050Z VRB02KT 9999 FEW014 SCT030 17/17 Q1017 LIRQ 202020Z VRB02KT 9999 SCT027 17/17 Q1016 LIRQ 201950Z 01002KT 9999 FEW027 18/17 Q1016 LIRQ 201920Z 35002KT 9999 FEW010 SCT030 18/17 Q1016 LIRQ 201850Z VRB01KT 9999 SCT030 18/18 Q1016 LIRQ 201820Z VRB02KT 9999 SCT030 19/18 Q1016 LIRQ 201750Z VRB01KT 9999 FEW027TCU SCT035 19/17 Q1015 LIRQ 201720Z VRB01KT 9999 FEW010 FEW027TCU BKN040 19/18 Q1015 LIRQ 201650Z 24004KT 210V270 9999 FEW027TCU BKN045 19/18 Q1015 LIRQ 201620Z 28004KT 9999 VCSH FEW024CB BKN055 19/18 Q1014 LIRQ 201550Z 34006KT 9999 -RA FEW010 FEW018CB BKN060 19/18 Q1014 LIRQ 201520Z 31004KT 270V330 9999 -RA FEW018CB SCT040 BKN075 19/18 Q1014 LIRQ 201450Z 25004KT 170V310 9999 -RA VCTS SCT018CB BKN040 20/18 Q1014 RETS LIRQ 201420Z 15008KT 9999 VCTS SCT022CB BKN035 22/16 Q1014 LIRQ 201350Z 17007KT 140V220 9999 SCT030TCU BKN040 23/16 Q1013 LIRQ 201320Z 34003KT 300V030 9999 SCT030TCU BKN040 25/15 Q1013 LIRQ 201250Z 22004KT 9999 SCT030TCU SCT040 25/14 Q1013 LIRQ 201220Z 29005KT 220V350 9999 FEW030TCU SCT040 25/14 Q1013 LIRQ 201150Z 22003KT 120V290 9999 FEW030TCU SCT040 25/15 Q1013 LIRQ 201120Z 22005KT 170V260 9999 FEW030TCU SCT040 25/15 Q1013 LIRQ 201050Z 28006KT 240V330 9999 FEW030TCU SCT040 24/15 Q1014 LIRQ 201020Z VRB02KT 9999 FEW030 24/16 Q1014 LIRQ 200950Z VRB03KT 9999 FEW030 23/16 Q1014 LIRQ 200920Z VRB02KT 9999 FEW030 22/16 Q1014 LIRQ 200850Z VRB01KT 9999 FEW030 21/16 Q1014 LIRQ 200820Z VRB01KT 9999 FEW040 20/16 Q1014 LIRQ 200750Z VRB01KT 9999 FEW040 18/15 Q1013 LIRQ 200720Z VRB01KT 9999 SCT025 SCT045 17/15 Q1013 LIRQ 200650Z VRB02KT 9999 SCT025 17/15 Q1013 LIRQ 200620Z 22002KT 9999 FEW035 16/16 Q1012 LIRQ 200550Z VRB02KT 9999 FEW035 15/15 Q1012 LIRQ 200520Z 29002KT 9999 SCT030 15/15 Q1012 LIRQ 200450Z VRB01KT 9999 SCT030 15/14 Q1012 LIRQ 200420Z VRB01KT 9999 SCT040 15/15 Q1012 LIRQ 200350Z VRB01KT 9999 SCT035 15/15 Q1012 LIRQ 200320Z 28002KT 9999 SCT035 15/14 Q1012 LIRQ 200250Z VRB01KT 9999 SCT035 15/15 Q1011 LIRQ 200220Z 18003KT 9999 SCT030 15/15 Q1011 LIRQ 200150Z VRB02KT 9999 SCT035 16/15 Q1011 LIRQ 200120Z VRB02KT 9999 SCT035 16/15 Q1011 LIRQ 200050Z VRB02KT 9999 SCT040 16/16 Q1011 LIRQ 200020Z VRB01KT 9999 SCT040 16/15 Q1012 LIRQ 192350Z VRB01KT 9999 SCT040 17/16 Q1012 LIRQ 192320Z VRB02KT 9999 SCT045 17/16 Q1011 LIRQ 192250Z 34003KT 9999 SCT045 18/16 Q1011 LIRQ 192220Z 07004KT 030V100 9999 -RA BKN045 18/15 Q1011 LIRQ 192150Z 07005KT 040V110 9999 FEW040 19/15 Q1011 LIRQ 192120Z 09005KT 9999 FEW045 18/15 Q1011 LIRQ 192050Z 15004KT 9999 FEW030 19/14 Q1011 LIRQ 192020Z 15004KT 9999 FEW030 19/14 Q1011 LIRQ 191950Z 14003KT 9999 FEW030 18/15 Q1011 LIRQ 191920Z 22006KT CAVOK 19/15 Q1011 LIRQ 191850Z 19006KT 9999 FEW040 20/15 Q1011 LIRQ 191820Z 22006KT 9999 FEW030 20/14 Q1011 LIRQ 191750Z 25011KT 9999 FEW045 21/13 Q1010 LIRQ 191720Z 24012KT 9999 FEW045 22/13 Q1010 LIRQ 191650Z 25010KT 9999 FEW045 23/12 Q1010 LIRQ 191620Z 26011KT 9999 FEW045 23/13 Q1010 LIRQ 191550Z 25013KT 9999 FEW045 24/14 Q1010 LIRQ 191520Z 25011KT 9999 SCT045 24/15 Q1010 LIRQ 191450Z 27013KT 9999 FEW025 SCT070 24/15 Q1010

METAR Messwerte

Zurück zur Übersicht

Ort
m ü. NN
Zeit Temperatur Taupunkt Rel.
Luftfeuchte
Luftdruck:
Altimeter
NN
Station
Wind in Beaufort
(Knoten)
Sichtweite
(Meter)
Wolken
(Meter über Grund)
Wettererscheinung
Florenz
38
Di 21.09. 04:201717100 %1018
1018
1013
Uml 1 (2)>= 10000Wolkig (150) 
Florenz
38
Di 21.09. 03:50181794 %1018
1018
1013
Uml 1 (2)>= 10000Stark bewölkt (150) 
Florenz
38
Di 21.09. 03:201717100 %1018
1018
1013
OSO 2 (3)>= 10000Bedeckt (150) 
Florenz
38
Di 21.09. 02:501717100 %1018
1018
1013
Uml 1 (2)>= 10000Bedeckt (240) 
Florenz
38
Di 21.09. 02:201717100 %1018
1018
1013
Uml 1 (2)>= 10000Stark bewölkt (240) 
Florenz
38
Di 21.09. 01:501717100 %1018
1018
1013
Uml 1 (2)>= 10000Stark bewölkt (240) 
Florenz
38
Di 21.09. 01:20181794 %1017
1017
1012
O 2 (3)>= 10000Bedeckt (240) 
Florenz
38
Di 21.09. 00:501717100 %1018
1018
1013
SSO 2 (3)>= 10000Stark bewölkt (300) 
Florenz
38
Di 21.09. 00:20171694 %1018
1018
1013
Uml 1 (2)>= 10000Wolkig (300) 
Florenz
38
Mo 20.09. 23:501717100 %1017
1017
1012
SSW 1 (2)>= 10000Leicht bewölkt (300) 
Florenz
38
Mo 20.09. 23:201717100 %1017
1017
1012
Uml 1 (1)>= 10000Wolkig (1100)
Leicht bewölkt (300)
 
Florenz
38
Mo 20.09. 22:501717100 %1017
1017
1012
Uml 1 (2)>= 10000Wolkig (910)
Leicht bewölkt (430)
 
Florenz
38
Mo 20.09. 22:201717100 %1016
1016
1011
Uml 1 (2)>= 10000Wolkig (820) 
Florenz
38
Mo 20.09. 21:50181794 %1016
1016
1011
N 1 (2)>= 10000Leicht bewölkt (820) 
Florenz
38
Mo 20.09. 21:20181794 %1016
1016
1011
N 1 (2)>= 10000Wolkig (910)
Leicht bewölkt (300)
 
Florenz
38
Mo 20.09. 20:501818100 %1016
1016
1011
Uml 1 (1)>= 10000Wolkig (910) 
Florenz
38
Mo 20.09. 20:20191894 %1016
1016
1011
Uml 1 (2)>= 10000Wolkig (910) 
Florenz
38
Mo 20.09. 19:50191788 %1015
1015
1010
Uml 1 (1)>= 10000Wolkig (1100)
Leicht bewölkt (820)
 
Florenz
38
Mo 20.09. 19:20191894 %1015
1015
1010
Uml 1 (1)>= 10000Stark bewölkt (1200)
Leicht bewölkt (820)
Leicht bewölkt (300)
 
Florenz
38
Mo 20.09. 18:50191894 %1015
1015
1010
WSW 2 (4)
SSW - W
>= 10000Stark bewölkt (1400)
Leicht bewölkt (820)
 
Florenz
38
Mo 20.09. 18:20191894 %1014
1014
1009
W 2 (4)>= 10000Stark bewölkt (1700)
Leicht bewölkt Cb (730)
 
Florenz
38
Mo 20.09. 17:50191894 %1014
1014
1009
NNW 2 (6)>= 10000Stark bewölkt (1800)
Leicht bewölkt Cb (550)
Leicht bewölkt (300)
Regen (schwach)
Florenz
38
Mo 20.09. 17:20191894 %1014
1014
1009
NW 2 (4)
W - NNW
>= 10000Stark bewölkt (2300)
Wolkig (1200)
Leicht bewölkt Cb (550)
Regen (schwach)
Florenz
38
Mo 20.09. 16:50201888 %1014
1014
1009
WSW 2 (4)
S - NW
>= 10000Stark bewölkt (1200)
Wolkig Cb (550)
Regen (schwach)
Florenz
38
Mo 20.09. 16:20221669 %1014
1014
1009
SSO 3 (8)>= 10000Stark bewölkt (1100)
Wolkig Cb (670)
 
Florenz
38
Mo 20.09. 15:50231665 %1013
1013
1008
S 3 (7)
SO - SW
>= 10000Stark bewölkt (1200)
Wolkig (910)
 
Florenz
38
Mo 20.09. 15:20251554 %1013
1013
1008
NNW 2 (3)
WNW - NNO
>= 10000Stark bewölkt (1200)
Wolkig (910)
 
Florenz
38
Mo 20.09. 14:50251450 %1013
1013
1008
SW 2 (4)>= 10000Wolkig (1200)
Wolkig (910)
 
Florenz
38
Mo 20.09. 14:20251450 %1013
1013
1008
WNW 2 (5)
SW - N
>= 10000Wolkig (1200)
Leicht bewölkt (910)
 
Florenz
38
Mo 20.09. 13:50251554 %1013
1013
1008
SW 2 (3)
OSO - WNW
>= 10000Wolkig (1200)
Leicht bewölkt (910)
 
Florenz
38
Mo 20.09. 13:20251554 %1013
1013
1008
SW 2 (5)
S - W
>= 10000Wolkig (1200)
Leicht bewölkt (910)
 
Florenz
38
Mo 20.09. 12:50241557 %1014
1014
1009
W 2 (6)
WSW - NNW
>= 10000Wolkig (1200)
Leicht bewölkt (910)
 
Florenz
38
Mo 20.09. 12:20241661 %1014
1014
1009
Uml 1 (2)>= 10000Leicht bewölkt (910) 
Florenz
38
Mo 20.09. 11:50231665 %1014
1014
1009
Uml 2 (3)>= 10000Leicht bewölkt (910) 
Florenz
38
Mo 20.09. 11:20221669 %1014
1014
1009
Uml 1 (2)>= 10000Leicht bewölkt (910) 
Florenz
38
Mo 20.09. 10:50211673 %1014
1014
1009
Uml 1 (1)>= 10000Leicht bewölkt (910) 
Florenz
38
Mo 20.09. 10:20201678 %1014
1014
1009
Uml 1 (1)>= 10000Leicht bewölkt (1200) 
Florenz
38
Mo 20.09. 09:50181583 %1013
1013
1008
Uml 1 (1)>= 10000Leicht bewölkt (1200) 
Florenz
38
Mo 20.09. 09:20171588 %1013
1013
1008
Uml 1 (1)>= 10000Wolkig (1400)
Wolkig (760)
 
Florenz
38
Mo 20.09. 08:50171588 %1013
1013
1008
Uml 1 (2)>= 10000Wolkig (760) 
Florenz
38
Mo 20.09. 08:201616100 %1012
1012
1007
SW 1 (2)>= 10000Leicht bewölkt (1100) 
Florenz
38
Mo 20.09. 07:501515100 %1012
1012
1007
Uml 1 (2)>= 10000Leicht bewölkt (1100) 
Florenz
38
Mo 20.09. 07:201515100 %1012
1012
1007
WNW 1 (2)>= 10000Wolkig (910) 
Florenz
38
Mo 20.09. 06:50151494 %1012
1012
1007
Uml 1 (1)>= 10000Wolkig (910) 
Florenz
38
Mo 20.09. 06:201515100 %1012
1012
1007
Uml 1 (1)>= 10000Wolkig (1200) 
Florenz
38
Mo 20.09. 05:501515100 %1012
1012
1007
Uml 1 (1)>= 10000Wolkig (1100) 
Florenz
38
Mo 20.09. 05:20151494 %1012
1012
1007
W 1 (2)>= 10000Wolkig (1100) 
Florenz
38
Mo 20.09. 04:501515100 %1011
1011
1006
Uml 1 (1)>= 10000Wolkig (1100) 
Florenz
38
Mo 20.09. 04:201515100 %1011
1011
1006
S 2 (3)>= 10000Wolkig (910) 
Florenz
38
Mo 20.09. 03:50161594 %1011
1011
1006
Uml 1 (2)>= 10000Wolkig (1100) 
Florenz
38
Mo 20.09. 03:20161594 %1011
1011
1006
Uml 1 (2)>= 10000Wolkig (1100) 
Florenz
38
Mo 20.09. 02:501616100 %1011
1011
1006
Uml 1 (2)>= 10000Wolkig (1200) 
Florenz
38
Mo 20.09. 02:20161594 %1012
1012
1007
Uml 1 (1)>= 10000Wolkig (1200) 
Florenz
38
Mo 20.09. 01:50171694 %1012
1012
1007
Uml 1 (1)>= 10000Wolkig (1200) 
Florenz
38
Mo 20.09. 01:20171694 %1011
1011
1006
Uml 1 (2)>= 10000Wolkig (1400) 
Florenz
38
Mo 20.09. 00:50181688 %1011
1011
1006
NNW 2 (3)>= 10000Wolkig (1400) 
Florenz
38
Mo 20.09. 00:20181583 %1011
1011
1006
ONO 2 (4)
NNO - O
>= 10000Stark bewölkt (1400)Regen (schwach)
Florenz
38
So 19.09. 23:50191578 %1011
1011
1006
ONO 2 (5)
NO - OSO
>= 10000Leicht bewölkt (1200) 
Florenz
38
So 19.09. 23:20181583 %1011
1011
1006
O 2 (5)>= 10000Leicht bewölkt (1400) 
Florenz
38
So 19.09. 22:50191473 %1011
1011
1006
SSO 2 (4)>= 10000Leicht bewölkt (910) 
Florenz
38
So 19.09. 22:20191473 %1011
1011
1006
SSO 2 (4)>= 10000Leicht bewölkt (910) 
Florenz
38
So 19.09. 21:50181583 %1011
1011
1006
SO 2 (3)>= 10000Leicht bewölkt (910) 
Florenz
38
So 19.09. 21:20191578 %1011
1011
1006
SW 2 (6)>= 10000Nicht signifikant 
Florenz
38
So 19.09. 20:50201573 %1011
1011
1006
S 2 (6)>= 10000Leicht bewölkt (1200) 
Florenz
38
So 19.09. 20:20201468 %1011
1011
1006
SW 2 (6)>= 10000Leicht bewölkt (910) 
Florenz
38
So 19.09. 19:50211360 %1010
1010
1005
WSW 4 (11)>= 10000Leicht bewölkt (1400) 
Florenz
38
So 19.09. 19:20221357 %1010
1010
1005
WSW 4 (12)>= 10000Leicht bewölkt (1400) 
Florenz
38
So 19.09. 18:50231250 %1010
1010
1005
WSW 3 (10)>= 10000Leicht bewölkt (1400) 
Florenz
38
So 19.09. 18:20231353 %1010
1010
1005
W 4 (11)>= 10000Leicht bewölkt (1400) 
Florenz
38
So 19.09. 17:50241454 %1010
1010
1005
WSW 4 (13)>= 10000Leicht bewölkt (1400) 
Florenz
38
So 19.09. 17:20241557 %1010
1010
1005
WSW 4 (11)>= 10000Wolkig (1400) 
Florenz
38
So 19.09. 16:50241557 %1010
1010
1005
W 4 (13)>= 10000Wolkig (2100)
Leicht bewölkt (760)
 

Altimeter: Einstellung am Altimeter (Höhenmesser), die Höhe 0 muss auf diesen Luftdruckwert zeigen, damit das Gerät die Stationshöhe richtig anzeigt.

NN: Luftdruck reduziert auf "Normal Null", auf Meereshöhe, dieser von der Temperatur abhängige Wert wird bisweilen unkorrekt einfach als "Luftdruck" bezeichnet. Eigentlich nur eine fiktive Größe, die es erlaubt, Stationen auf unterschiedlichen Höhen miteinander zu vergleichen.

Station: Realer Luftdruck an der Station.